createdAt,value
2023-05-02T00:00:37.318Z,14.43
2023-05-02T00:05:41.082Z,14.39
2023-05-02T00:10:43.639Z,14.30
2023-05-02T00:15:46.654Z,14.20
2023-05-02T00:20:50.967Z,14.17
2023-05-02T00:25:53.751Z,14.09
2023-05-02T00:30:56.613Z,14.01
2023-05-02T00:35:59.381Z,13.81
2023-05-02T00:41:02.151Z,13.77
2023-05-02T00:46:05.144Z,13.67
2023-05-02T00:51:09.186Z,13.49
2023-05-02T00:56:12.222Z,13.38
2023-05-02T01:01:27.009Z,13.25
2023-05-02T01:06:42.277Z,13.23
2023-05-02T01:12:05.712Z,13.10
2023-05-02T01:17:15.382Z,13.07
2023-05-02T01:22:20.245Z,13.06
2023-05-02T01:27:41.992Z,13.05
2023-05-02T01:32:47.605Z,13.00
2023-05-02T01:37:53.011Z,12.89
2023-05-02T01:42:58.682Z,12.78
2023-05-02T01:48:02.404Z,12.71
2023-05-02T01:53:11.788Z,12.65
2023-05-02T01:58:17.193Z,12.60
2023-05-02T02:03:22.132Z,12.56
2023-05-02T02:08:25.778Z,12.59
2023-05-02T02:13:34.981Z,12.69
2023-05-02T02:18:39.656Z,12.83
2023-05-02T02:23:45.871Z,12.99
2023-05-02T02:28:48.992Z,13.06
2023-05-02T02:33:52.084Z,13.10
2023-05-02T02:39:16.680Z,13.18
2023-05-02T02:44:25.059Z,13.21
2023-05-02T02:49:39.253Z,13.21
2023-05-02T02:54:47.215Z,13.27
2023-05-02T03:00:00.408Z,13.30
2023-05-02T03:05:05.938Z,13.28
2023-05-02T03:10:09.351Z,13.31
2023-05-02T03:15:16.668Z,13.41
2023-05-02T03:20:20.221Z,13.43
2023-05-02T03:25:24.192Z,13.73
2023-05-02T03:30:27.212Z,14.50
2023-05-02T03:35:30.428Z,15.44
2023-05-02T03:40:33.332Z,16.06
2023-05-02T03:45:36.201Z,16.53
2023-05-02T03:50:39.257Z,17.14
2023-05-02T03:55:46.052Z,17.68
2023-05-02T04:00:56.695Z,18.09
2023-05-02T04:06:01.646Z,18.97
2023-05-02T04:11:04.922Z,19.55
2023-05-02T04:16:09.261Z,20.18
2023-05-02T04:21:13.800Z,20.80
2023-05-02T04:26:17.680Z,21.42
2023-05-02T04:31:28.093Z,22.20
2023-05-02T04:36:32.371Z,22.22
2023-05-02T04:41:35.135Z,22.66
2023-05-02T04:46:41.722Z,22.88
2023-05-02T04:51:45.452Z,23.23
2023-05-02T04:56:49.598Z,23.77
2023-05-02T05:01:52.843Z,24.51
2023-05-02T05:06:56.121Z,24.98
2023-05-02T05:12:02.210Z,25.43
2023-05-02T05:17:07.954Z,26.02
2023-05-02T05:22:11.721Z,26.48
2023-05-02T05:27:15.245Z,27.23
2023-05-02T05:32:21.018Z,27.87
2023-05-02T05:37:23.841Z,28.08
2023-05-02T05:42:27.394Z,28.55
2023-05-02T05:47:35.176Z,28.42
2023-05-02T05:52:38.342Z,29.03
2023-05-02T05:57:41.488Z,29.04
2023-05-02T06:02:45.802Z,29.60
2023-05-02T06:07:57.969Z,29.74
2023-05-02T06:13:00.938Z,30.63
2023-05-02T06:18:09.020Z,30.50
2023-05-02T06:23:11.880Z,30.21
2023-05-02T06:28:14.516Z,30.57
2023-05-02T06:33:17.395Z,31.67
2023-05-02T06:38:20.898Z,31.69
2023-05-02T06:43:24.623Z,31.83
2023-05-02T06:48:27.314Z,31.92
2023-05-02T06:53:32.427Z,31.33
2023-05-02T06:58:36.099Z,32.07
2023-05-02T07:03:38.951Z,30.44
2023-05-02T07:08:41.740Z,32.04
2023-05-02T07:13:44.655Z,29.32
2023-05-02T07:18:47.514Z,29.57
2023-05-02T07:23:50.248Z,31.31
2023-05-02T07:28:52.929Z,30.25
2023-05-02T07:33:55.679Z,29.46
2023-05-02T07:38:58.505Z,30.86
2023-05-02T07:44:01.180Z,27.72
2023-05-02T07:49:11.264Z,26.03
2023-05-02T07:54:19.988Z,27.90
2023-05-02T07:59:23.217Z,29.97
2023-05-02T08:04:26.754Z,28.17
2023-05-02T08:09:38.894Z,29.28
2023-05-02T08:14:46.328Z,29.06
2023-05-02T08:19:48.989Z,29.00
2023-05-02T08:24:51.768Z,30.71
2023-05-02T08:29:54.603Z,30.26
2023-05-02T08:34:57.428Z,27.88
2023-05-02T08:40:01.473Z,26.34
2023-05-02T08:45:09.113Z,25.75
2023-05-02T08:50:12.593Z,27.98
2023-05-02T08:55:16.084Z,27.06
2023-05-02T09:00:19.605Z,27.37
2023-05-02T09:05:25.378Z,27.37
2023-05-02T09:10:29.560Z,27.50
2023-05-02T09:15:32.543Z,26.43
2023-05-02T09:20:40.594Z,25.95
2023-05-02T09:25:43.407Z,25.77
2023-05-02T09:30:46.428Z,26.08
2023-05-02T09:35:54.063Z,25.08
2023-05-02T09:40:57.231Z,24.37
2023-05-02T09:46:07.583Z,24.14
2023-05-02T09:51:18.623Z,24.66
2023-05-02T09:56:22.558Z,25.39
2023-05-02T10:01:27.118Z,24.92
2023-05-02T10:06:31.054Z,24.68
2023-05-02T10:11:34.969Z,24.46
2023-05-02T10:16:47.804Z,24.11
2023-05-02T10:21:51.904Z,23.42
2023-05-02T10:26:55.982Z,22.92
2023-05-02T10:32:01.336Z,22.26
2023-05-02T10:37:04.111Z,21.81
2023-05-02T10:42:08.085Z,21.46
2023-05-02T10:47:25.057Z,21.29
2023-05-02T10:52:29.540Z,21.34
2023-05-02T10:57:32.228Z,21.65
2023-05-02T11:02:49.180Z,22.23
2023-05-02T11:08:22.990Z,23.52
2023-05-02T11:13:52.059Z,24.63
2023-05-02T11:19:01.605Z,25.36
2023-05-02T11:24:44.947Z,25.83
2023-05-02T11:30:14.052Z,25.78
2023-05-02T11:35:24.893Z,25.84
2023-05-02T11:40:28.783Z,25.52
2023-05-02T11:45:36.744Z,24.55
2023-05-02T11:50:49.584Z,23.75
2023-05-02T11:55:58.500Z,23.28
2023-05-02T12:01:15.210Z,23.06
2023-05-02T12:06:20.488Z,22.82
2023-05-02T12:11:24.521Z,22.61
2023-05-02T12:16:31.602Z,22.51
2023-05-02T12:21:37.210Z,22.51
2023-05-02T12:26:40.988Z,22.37
2023-05-02T12:31:54.077Z,22.33
2023-05-02T12:36:57.525Z,22.23
2023-05-02T12:42:00.386Z,22.19
2023-05-02T12:47:03.531Z,22.25
2023-05-02T12:52:06.457Z,22.36
2023-05-02T12:57:09.626Z,22.33
2023-05-02T13:02:12.711Z,22.41
2023-05-02T13:07:15.726Z,21.99
2023-05-02T13:12:18.930Z,21.84
2023-05-02T13:17:23.467Z,21.62
2023-05-02T13:22:27.186Z,21.51
2023-05-02T13:27:29.925Z,21.50
2023-05-02T13:32:32.672Z,21.27
2023-05-02T13:37:39.198Z,21.29
2023-05-02T13:42:43.763Z,21.31
2023-05-02T13:47:47.009Z,21.31
2023-05-02T13:52:50.098Z,21.26
2023-05-02T13:57:53.634Z,20.92
2023-05-02T14:02:56.887Z,20.67
2023-05-02T14:07:59.890Z,20.48
2023-05-02T14:13:02.803Z,20.27
2023-05-02T14:18:05.585Z,20.22
2023-05-02T14:23:12.166Z,19.94
2023-05-02T14:28:17.822Z,20.04
2023-05-02T14:33:20.381Z,19.91
2023-05-02T14:38:23.096Z,19.94
2023-05-02T14:43:27.780Z,19.83
2023-05-02T14:48:31.386Z,19.67
2023-05-02T14:53:35.353Z,19.54
2023-05-02T14:58:38.983Z,19.38
2023-05-02T15:04:03.594Z,19.27
2023-05-02T15:09:05.288Z,19.08
2023-05-02T15:14:08.063Z,19.00
2023-05-02T15:19:11.954Z,18.79
2023-05-02T15:24:14.597Z,18.62
2023-05-02T15:29:19.513Z,18.45
2023-05-02T15:34:23.648Z,18.34
2023-05-02T15:39:28.153Z,18.13
2023-05-02T15:44:31.025Z,18.00
2023-05-02T15:49:37.283Z,17.71
2023-05-02T15:54:44.967Z,17.54
2023-05-02T15:59:54.181Z,17.40
2023-05-02T16:04:57.478Z,17.19
2023-05-02T16:10:01.440Z,16.92
2023-05-02T16:15:09.814Z,16.67
2023-05-02T16:20:13.144Z,16.66
2023-05-02T16:25:20.904Z,16.53
2023-05-02T16:30:23.617Z,16.24
2023-05-02T16:35:26.936Z,16.11
2023-05-02T16:40:31.538Z,15.90
2023-05-02T16:45:38.585Z,15.85
2023-05-02T16:50:41.559Z,15.69
2023-05-02T16:55:44.411Z,15.58
2023-05-02T17:00:48.359Z,15.38
2023-05-02T17:05:51.297Z,15.16
2023-05-02T17:10:58.460Z,14.98
2023-05-02T17:16:01.581Z,14.79
2023-05-02T17:21:04.562Z,14.69
2023-05-02T17:26:15.156Z,14.53
2023-05-02T17:31:18.828Z,14.45
2023-05-02T17:36:21.839Z,14.19
2023-05-02T17:41:24.979Z,14.17
2023-05-02T17:46:27.921Z,14.02
2023-05-02T17:51:30.738Z,13.89
2023-05-02T17:56:35.376Z,13.84
2023-05-02T18:01:38.403Z,13.74
2023-05-02T18:06:41.148Z,13.57
2023-05-02T18:11:44.236Z,13.34
2023-05-02T18:16:49.927Z,13.41
2023-05-02T18:21:53.364Z,13.33
2023-05-02T18:26:57.859Z,13.24
2023-05-02T18:32:00.777Z,13.17
2023-05-02T18:37:04.491Z,13.10
2023-05-02T18:42:08.458Z,13.03
2023-05-02T18:47:11.317Z,12.97
2023-05-02T18:52:14.405Z,12.88
2023-05-02T18:57:17.191Z,12.82
2023-05-02T19:02:19.843Z,12.72
2023-05-02T19:07:22.762Z,12.70
2023-05-02T19:12:25.607Z,12.65
2023-05-02T19:17:28.382Z,12.55
2023-05-02T19:22:32.526Z,12.50
2023-05-02T19:27:35.674Z,12.48
2023-05-02T19:32:38.560Z,12.38
2023-05-02T19:37:41.712Z,12.25
2023-05-02T19:42:44.611Z,12.23
2023-05-02T19:47:47.835Z,12.16
2023-05-02T19:52:51.100Z,12.09
2023-05-02T19:57:53.980Z,12.02
2023-05-02T20:02:57.440Z,11.99
2023-05-02T20:08:00.347Z,11.92
2023-05-02T20:13:03.186Z,11.84
2023-05-02T20:18:06.080Z,11.82
2023-05-02T20:23:08.920Z,11.78
2023-05-02T20:28:11.809Z,11.73
2023-05-02T20:33:16.760Z,11.64
2023-05-02T20:38:20.781Z,11.57
2023-05-02T20:43:23.596Z,11.46
2023-05-02T20:48:26.384Z,11.45
2023-05-02T20:53:28.831Z,11.40
2023-05-02T20:58:31.911Z,11.30
2023-05-02T21:03:36.954Z,11.23
2023-05-02T21:08:39.607Z,11.20
2023-05-02T21:13:43.363Z,11.18
2023-05-02T21:18:47.295Z,11.12
2023-05-02T21:23:50.115Z,11.07
2023-05-02T21:28:53.208Z,11.03
2023-05-02T21:33:55.996Z,10.96
2023-05-02T21:38:58.657Z,10.91
2023-05-02T21:44:01.370Z,10.89
2023-05-02T21:49:04.287Z,10.83
2023-05-02T21:54:07.758Z,10.78
2023-05-02T21:59:10.672Z,10.69
2023-05-02T22:04:13.424Z,10.55
2023-05-02T22:09:16.015Z,10.53
2023-05-02T22:14:18.761Z,10.42
2023-05-02T22:19:21.845Z,10.29
2023-05-02T22:24:24.747Z,10.18
2023-05-02T22:29:27.544Z,10.14
2023-05-02T22:34:30.271Z,10.02
2023-05-02T22:39:33.217Z,9.85
2023-05-02T22:44:50.677Z,9.82
2023-05-02T22:49:59.952Z,9.85
2023-05-02T22:55:02.859Z,9.71
2023-05-02T23:00:07.642Z,9.73
2023-05-02T23:05:10.472Z,9.72
2023-05-02T23:10:13.255Z,9.65
2023-05-02T23:15:15.947Z,9.59
2023-05-02T23:20:20.631Z,9.56
2023-05-02T23:25:24.537Z,9.58
2023-05-02T23:30:27.286Z,9.48
2023-05-02T23:35:32.481Z,9.42
2023-05-02T23:40:35.406Z,9.43
2023-05-02T23:45:38.058Z,9.30
2023-05-02T23:50:40.611Z,9.23
2023-05-02T23:55:43.455Z,9.13
